Time;durP1;ratioP1;P1;durP2;ratioP2;P2;SDS_P1;SDS_P2;PMS_P1;PMS_P2;Temp;Humidity;BMP_temperature;BMP_pressure;BME280_temperature;BME280_humidity;BME280_pressure;Samples;Min_cycle;Max_cycle;Signal;HPM_P1;HPM_P2
2022/01/06 00:00:40;;;;;;;6.03;2.30;;;4.70;1.00;;;;;;5037509;28;20221;-82
2022/01/06 00:03:08;;;;;;;3.97;2.20;;;4.70;1.00;;;;;;5031225;28;20926;-83
2022/01/06 00:05:38;;;;;;;5.88;3.13;;;4.70;1.00;;;;;;5029707;28;20748;-82
2022/01/06 00:08:08;;;;;;;9.05;2.92;;;4.70;1.00;;;;;;5033277;28;20232;-82
2022/01/06 00:10:39;;;;;;;5.05;3.05;;;4.80;1.00;;;;;;5035338;28;21554;-82
2022/01/06 00:13:11;;;;;;;10.82;3.30;;;4.80;1.00;;;;;;5022179;28;21002;-82
2022/01/06 00:15:44;;;;;;;9.20;2.70;;;4.70;1.00;;;;;;5039496;28;20233;-82
2022/01/06 00:18:20;;;;;;;10.82;3.28;;;4.70;1.00;;;;;;5035798;28;20363;-82
2022/01/06 00:23:39;;;;;;;3.67;2.20;;;4.70;1.00;;;;;;5026316;28;20221;-83
2022/01/06 00:26:11;;;;;;;7.32;2.70;;;4.70;1.00;;;;;;5022963;28;20233;-83
2022/01/06 00:28:42;;;;;;;6.15;2.88;;;4.80;1.00;;;;;;5038400;28;20233;-85
2022/01/06 00:31:09;;;;;;;9.43;2.70;;;4.80;1.00;;;;;;5025560;28;20233;-82
2022/01/06 00:33:36;;;;;;;7.57;2.30;;;4.70;1.00;;;;;;5041040;28;20260;-82
2022/01/06 00:36:08;;;;;;;8.77;2.78;;;4.70;1.00;;;;;;5017658;28;20229;-83
2022/01/06 00:38:36;;;;;;;6.60;2.10;;;4.70;1.00;;;;;;5024976;28;20318;-83
2022/01/06 00:41:03;;;;;;;7.32;2.97;;;4.70;1.00;;;;;;5022598;28;20225;-82
2022/01/06 00:43:37;;;;;;;6.05;2.53;;;4.70;1.00;;;;;;5036619;28;20241;-83
2022/01/06 00:46:07;;;;;;;4.47;2.78;;;4.60;1.00;;;;;;5042879;28;20233;-81
2022/01/06 00:48:34;;;;;;;4.95;2.17;;;4.50;1.00;;;;;;5038511;28;20354;-82
2022/01/06 00:51:04;;;;;;;7.32;2.50;;;4.50;1.00;;;;;;5021475;28;20411;-82
2022/01/06 00:53:31;;;;;;;3.83;2.38;;;4.40;1.00;;;;;;5040292;28;20233;-81
2022/01/06 00:56:01;;;;;;;3.85;2.15;;;4.30;1.00;;;;;;5033479;28;20236;-83
2022/01/06 00:58:28;;;;;;;7.40;2.58;;;4.20;1.00;;;;;;5022465;28;20696;-83
2022/01/06 01:00:57;;;;;;;4.50;2.25;;;4.00;1.00;;;;;;5034994;28;20791;-84
2022/01/06 01:03:24;;;;;;;5.15;2.28;;;4.00;1.00;;;;;;5039211;28;20233;-82
2022/01/06 01:05:55;;;;;;;3.85;2.08;;;3.80;1.00;;;;;;5017903;28;20226;-83
2022/01/06 01:08:24;;;;;;;3.92;2.25;;;3.70;1.00;;;;;;5019324;28;20295;-82
2022/01/06 01:10:53;;;;;;;3.95;2.50;;;3.50;1.00;;;;;;5010455;28;20380;-82
2022/01/06 01:13:27;;;;;;;3.95;2.60;;;3.40;1.00;;;;;;5014651;28;20270;-82
2022/01/06 01:15:58;;;;;;;4.18;2.22;;;3.40;1.00;;;;;;5030183;28;20228;-83
2022/01/06 01:18:27;;;;;;;4.05;2.53;;;3.30;1.00;;;;;;5036881;28;20274;-82
2022/01/06 01:20:55;;;;;;;4.38;2.70;;;3.20;1.00;;;;;;5035360;28;20209;-82
2022/01/06 01:23:23;;;;;;;5.20;2.15;;;3.20;1.00;;;;;;5016041;28;20229;-83
2022/01/06 01:25:50;;;;;;;4.65;2.17;;;3.00;1.00;;;;;;5032092;28;20236;-82
2022/01/06 01:28:18;;;;;;;2.65;1.40;;;2.90;1.00;;;;;;5038697;28;21335;-82
2022/01/06 01:31:02;;;;;;;2.38;1.75;;;2.70;1.00;;;;;;5043787;28;20976;-83
2022/01/06 01:33:31;;;;;;;5.80;1.80;;;2.60;1.00;;;;;;5039675;28;20942;-83
2022/01/06 01:35:58;;;;;;;3.20;1.80;;;2.50;1.00;;;;;;5035595;28;20381;-82
2022/01/06 01:38:28;;;;;;;5.00;1.60;;;2.40;1.00;;;;;;5014987;28;20304;-82
2022/01/06 01:40:58;;;;;;;7.60;2.35;;;2.30;1.00;;;;;;5021411;28;20229;-83
2022/01/06 01:43:28;;;;;;;3.47;1.85;;;2.30;1.00;;;;;;5016081;28;20242;-83
2022/01/06 01:46:07;;;;;;;4.75;1.95;;;2.20;1.00;;;;;;5033430;28;20245;-82
2022/01/06 01:48:42;;;;;;;5.70;1.80;;;2.10;1.00;;;;;;5030701;28;20259;-82
2022/01/06 01:51:10;;;;;;;3.10;1.70;;;2.10;1.00;;;;;;5017735;28;20234;-83
2022/01/06 01:53:38;;;;;;;4.45;1.98;;;2.10;1.00;;;;;;5054018;28;20222;-82
2022/01/06 01:56:06;;;;;;;7.45;1.75;;;2.10;1.00;;;;;;5040670;28;20232;-83
2022/01/06 01:58:35;;;;;;;4.57;1.80;;;2.20;1.00;;;;;;5032291;28;20226;-82
2022/01/06 02:01:03;;;;;;;5.18;2.20;;;2.30;1.00;;;;;;5039890;28;20237;-82
2022/01/06 02:03:32;;;;;;;2.63;1.98;;;2.40;1.00;;;;;;5036468;28;20344;-82
2022/01/06 02:06:02;;;;;;;4.80;1.85;;;2.50;1.00;;;;;;5032275;28;20269;-81
2022/01/06 02:08:33;;;;;;;3.28;2.10;;;2.60;1.00;;;;;;5021478;28;20276;-80
2022/01/06 02:11:03;;;;;;;2.20;1.50;;;2.60;1.00;;;;;;5011003;28;20741;-81
2022/01/06 02:13:31;;;;;;;6.72;1.88;;;2.70;1.00;;;;;;5019334;28;20230;-82
2022/01/06 02:16:01;;;;;;;3.10;1.70;;;2.70;1.00;;;;;;5025529;28;20238;-82
2022/01/06 02:18:34;;;;;;;3.60;1.42;;;2.70;1.00;;;;;;5040456;28;20387;-82
2022/01/06 02:21:12;;;;;;;2.60;1.85;;;2.70;1.00;;;;;;5042260;28;20297;-80
2022/01/06 02:23:40;;;;;;;4.53;1.65;;;2.70;1.00;;;;;;5059575;28;20221;-81
2022/01/06 02:26:16;;;;;;;2.95;1.50;;;2.80;1.00;;;;;;5056382;28;20249;-82
2022/01/06 02:28:44;;;;;;;3.65;2.00;;;2.80;1.00;;;;;;5044257;28;20278;-83
2022/01/06 02:31:11;;;;;;;2.97;1.83;;;2.80;1.00;;;;;;5019852;28;20225;-82
2022/01/06 02:33:44;;;;;;;5.35;1.92;;;2.90;1.00;;;;;;5035198;28;20222;-82
2022/01/06 02:36:19;;;;;;;3.97;1.50;;;2.90;1.00;;;;;;5019144;28;20237;-82
2022/01/06 02:38:48;;;;;;;3.55;1.70;;;3.00;1.00;;;;;;5035438;28;21095;-82
2022/01/06 02:41:18;;;;;;;2.95;1.88;;;3.00;1.00;;;;;;5016753;28;20337;-83
2022/01/06 02:43:56;;;;;;;5.20;1.50;;;3.10;1.00;;;;;;5039332;28;20252;-82
2022/01/06 02:46:24;;;;;;;4.07;1.50;;;3.10;1.00;;;;;;5027577;28;20323;-81
2022/01/06 02:48:57;;;;;;;4.18;1.77;;;3.10;1.00;;;;;;5039382;28;20280;-83
2022/01/06 02:51:26;;;;;;;2.85;1.38;;;3.10;1.00;;;;;;5013861;28;20225;-81
2022/01/06 02:53:58;;;;;;;4.10;1.70;;;3.10;1.00;;;;;;5040333;28;20236;-82
2022/01/06 02:56:32;;;;;;;4.03;1.35;;;3.00;1.00;;;;;;5018180;28;20739;-82
2022/01/06 02:58:59;;;;;;;2.92;1.55;;;3.00;1.00;;;;;;5030239;28;20250;-81
2022/01/06 03:01:31;;;;;;;3.90;1.58;;;3.00;1.00;;;;;;5014518;28;20253;-82
2022/01/06 03:04:07;;;;;;;2.53;1.40;;;3.00;1.00;;;;;;5017256;28;20220;-82
2022/01/06 03:06:38;;;;;;;2.78;1.30;;;3.00;1.00;;;;;;5029750;28;20228;-81
2022/01/06 03:09:06;;;;;;;2.28;1.17;;;3.00;1.00;;;;;;5033123;28;20253;-81
2022/01/06 03:11:43;;;;;;;3.10;1.27;;;3.00;1.00;;;;;;5016248;28;20225;-82
2022/01/06 03:14:18;;;;;;;3.65;1.42;;;3.00;1.00;;;;;;5033606;28;20280;-82
2022/01/06 03:16:45;;;;;;;2.45;1.30;;;3.00;1.00;;;;;;5026363;28;20229;-81
2022/01/06 03:19:12;;;;;;;2.42;1.40;;;2.90;1.00;;;;;;5011276;28;20241;-82
2022/01/06 03:21:46;;;;;;;3.25;1.30;;;2.90;1.00;;;;;;5011991;28;20316;-80
2022/01/06 03:24:15;;;;;;;2.25;1.45;;;2.80;1.00;;;;;;5036781;28;20225;-82
2022/01/06 03:26:43;;;;;;;2.17;1.10;;;2.80;1.00;;;;;;5013821;28;20230;-82
2022/01/06 03:29:17;;;;;;;5.45;1.50;;;2.80;1.00;;;;;;5036697;28;20242;-82
2022/01/06 03:31:45;;;;;;;4.03;1.10;;;2.80;1.00;;;;;;5040593;28;20259;-83
2022/01/06 03:34:13;;;;;;;3.35;1.23;;;2.70;1.00;;;;;;5068093;28;20216;-81
2022/01/06 03:36:50;;;;;;;3.35;1.48;;;2.70;1.00;;;;;;5057399;28;20248;-81
2022/01/06 03:39:20;;;;;;;4.60;1.35;;;2.60;1.00;;;;;;5038481;28;20252;-82
2022/01/06 03:41:51;;;;;;;2.13;1.10;;;2.50;1.00;;;;;;5019205;28;20249;-82
2022/01/06 03:44:29;;;;;;;4.10;1.20;;;2.40;1.00;;;;;;5039138;28;20264;-81
2022/01/06 03:46:59;;;;;;;2.42;1.17;;;2.30;1.00;;;;;;5018185;28;20229;-82
2022/01/06 03:49:36;;;;;;;2.60;1.30;;;2.30;1.00;;;;;;5034344;28;20346;-82
2022/01/06 03:52:10;;;;;;;2.55;1.30;;;2.20;1.00;;;;;;5025907;28;20432;-82
2022/01/06 03:54:37;;;;;;;2.70;1.27;;;2.10;1.00;;;;;;5036343;28;20231;-81
2022/01/06 03:57:09;;;;;;;4.43;1.40;;;2.00;1.00;;;;;;5017957;28;20230;-81
2022/01/06 03:59:39;;;;;;;2.10;0.73;;;1.90;1.00;;;;;;5016420;28;20228;-81
2022/01/06 04:02:06;;;;;;;2.10;1.00;;;1.90;1.00;;;;;;5021058;28;20584;-81
2022/01/06 04:04:37;;;;;;;3.10;0.80;;;1.80;1.00;;;;;;5015050;28;20226;-82
2022/01/06 04:07:05;;;;;;;2.20;1.40;;;1.70;1.00;;;;;;5033738;28;21309;-82
2022/01/06 04:09:39;;;;;;;2.15;1.10;;;1.70;1.00;;;;;;5037840;28;20242;-82
2022/01/06 04:12:09;;;;;;;2.83;1.20;;;1.60;1.00;;;;;;5034061;28;20230;-82
2022/01/06 04:14:42;;;;;;;2.65;1.20;;;1.60;1.00;;;;;;5031872;28;20629;-82
2022/01/06 04:17:16;;;;;;;3.70;1.00;;;1.50;1.00;;;;;;5029936;28;20321;-82
2022/01/06 04:19:43;;;;;;;4.22;1.42;;;1.50;1.00;;;;;;5018197;28;20361;-83
2022/01/06 04:22:14;;;;;;;2.78;1.23;;;1.50;1.00;;;;;;5034777;28;21015;-82
2022/01/06 04:24:42;;;;;;;3.78;1.50;;;1.50;1.00;;;;;;5010681;28;22693;-81
2022/01/06 04:30:08;;;;;;;2.50;1.50;;;1.40;1.00;;;;;;5062016;28;20444;-79
2022/01/06 04:32:40;;;;;;;3.05;1.00;;;1.30;1.00;;;;;;5058669;28;20218;-80
2022/01/06 04:35:09;;;;;;;3.58;1.08;;;1.30;1.00;;;;;;5051992;28;20649;-81
2022/01/06 04:37:38;;;;;;;4.43;1.90;;;1.20;1.00;;;;;;5013762;28;20234;-81
2022/01/06 04:40:13;;;;;;;4.75;1.00;;;1.20;1.00;;;;;;5026122;28;23468;-81
2022/01/06 04:42:40;;;;;;;3.63;1.52;;;1.20;1.00;;;;;;5035715;28;20388;-82
2022/01/06 04:45:09;;;;;;;3.13;1.80;;;1.20;1.00;;;;;;5015069;28;20721;-80
2022/01/06 04:47:38;;;;;;;1.88;0.95;;;1.10;1.00;;;;;;5035908;28;20329;-82
2022/01/06 04:50:08;;;;;;;3.38;1.00;;;1.10;1.00;;;;;;5020226;28;20233;-81
2022/01/06 04:52:38;;;;;;;4.03;1.25;;;1.10;1.00;;;;;;5032650;28;20249;-81
2022/01/06 04:55:08;;;;;;;5.00;2.30;;;1.00;1.00;;;;;;5020461;28;20230;-82
2022/01/06 04:57:37;;;;;;;2.70;1.30;;;1.00;1.00;;;;;;5034927;28;20238;-80
2022/01/06 05:00:08;;;;;;;2.45;0.80;;;1.00;1.00;;;;;;5040352;28;20232;-81
2022/01/06 05:02:38;;;;;;;4.93;2.05;;;1.00;1.00;;;;;;5036271;28;20218;-81
2022/01/06 05:05:06;;;;;;;2.00;0.88;;;1.00;1.00;;;;;;5042258;28;20284;-80
2022/01/06 05:07:33;;;;;;;2.25;1.00;;;0.90;1.00;;;;;;5040824;28;20232;-81
2022/01/06 05:10:01;;;;;;;2.92;1.60;;;0.90;1.00;;;;;;5039216;28;20643;-81
2022/01/06 05:12:32;;;;;;;4.93;1.30;;;0.90;1.00;;;;;;5044289;28;20763;-83
2022/01/06 05:14:59;;;;;;;3.97;1.73;;;0.80;1.00;;;;;;5046170;28;20225;-81
2022/01/06 05:17:31;;;;;;;6.05;1.58;;;0.90;1.00;;;;;;5040078;28;20222;-80
2022/01/06 05:20:00;;;;;;;2.88;1.50;;;0.90;1.00;;;;;;5045497;28;20214;-81
2022/01/06 05:22:29;;;;;;;3.25;1.38;;;0.80;1.00;;;;;;5057928;28;20253;-79
2022/01/06 05:24:56;;;;;;;3.08;2.47;;;0.90;1.00;;;;;;5013721;28;20245;-80
2022/01/06 05:27:29;;;;;;;4.30;1.75;;;0.80;1.00;;;;;;5029920;28;21071;-81
2022/01/06 05:29:57;;;;;;;2.42;1.40;;;0.80;1.00;;;;;;5026810;28;20234;-82
2022/01/06 05:32:24;;;;;;;13.23;1.75;;;0.80;1.00;;;;;;5017282;28;20356;-83
2022/01/06 05:34:51;;;;;;;6.32;1.75;;;0.80;1.00;;;;;;5021602;28;20915;-83
2022/01/06 05:37:18;;;;;;;3.05;1.15;;;0.80;1.00;;;;;;5013797;28;20256;-82
2022/01/06 05:39:47;;;;;;;4.53;1.70;;;0.80;1.00;;;;;;5021545;28;20237;-81
2022/01/06 05:42:15;;;;;;;3.95;1.58;;;0.80;1.00;;;;;;5031513;28;20299;-82
2022/01/06 05:44:46;;;;;;;3.13;1.70;;;0.90;1.00;;;;;;5031357;28;20257;-82
2022/01/06 05:47:13;;;;;;;3.92;1.40;;;0.90;1.00;;;;;;5033758;28;20376;-82
2022/01/06 05:49:42;;;;;;;4.15;1.65;;;0.90;1.00;;;;;;5019328;28;20242;-82
2022/01/06 05:52:11;;;;;;;2.75;1.38;;;0.80;1.00;;;;;;5039110;28;20225;-82
2022/01/06 05:54:39;;;;;;;3.95;1.65;;;0.80;1.00;;;;;;5018895;28;20214;-81
2022/01/06 05:57:07;;;;;;;6.28;1.80;;;0.80;1.00;;;;;;5034131;28;20368;-82
2022/01/06 05:59:34;;;;;;;3.08;1.42;;;0.80;1.00;;;;;;5042425;28;20225;-82
2022/01/06 06:02:07;;;;;;;3.15;1.30;;;0.80;1.00;;;;;;5043206;28;20217;-82
2022/01/06 06:04:39;;;;;;;4.30;1.33;;;0.80;1.00;;;;;;5042073;28;20942;-81
2022/01/06 06:07:09;;;;;;;3.90;1.52;;;0.80;1.00;;;;;;5040872;28;20230;-82
2022/01/06 06:09:41;;;;;;;3.40;1.20;;;0.80;1.00;;;;;;5027671;28;20717;-82
2022/01/06 06:12:09;;;;;;;3.67;1.35;;;0.90;1.00;;;;;;5061755;28;20225;-80
2022/01/06 06:14:39;;;;;;;3.25;1.30;;;0.90;1.00;;;;;;5053205;28;20218;-79
2022/01/06 06:17:08;;;;;;;2.38;1.25;;;0.90;1.00;;;;;;5042006;28;21362;-79
2022/01/06 06:19:34;;;;;;;3.55;1.48;;;0.90;1.00;;;;;;5033213;28;20714;-80
2022/01/06 06:22:01;;;;;;;4.65;3.10;;;0.80;1.00;;;;;;5040233;28;20330;-81
2022/01/06 06:24:29;;;;;;;4.63;1.55;;;0.90;1.00;;;;;;5037189;28;20229;-81
2022/01/06 06:26:56;;;;;;;3.22;1.90;;;0.90;1.00;;;;;;5024570;28;20285;-81
2022/01/06 06:29:24;;;;;;;3.05;1.80;;;0.90;1.00;;;;;;5021514;28;20226;-82
2022/01/06 06:31:54;;;;;;;3.90;1.80;;;0.80;1.00;;;;;;5038101;28;20218;-80
2022/01/06 06:34:22;;;;;;;6.10;1.45;;;0.80;1.00;;;;;;5022348;28;20232;-83
2022/01/06 06:36:49;;;;;;;3.40;1.92;;;0.80;1.00;;;;;;5017087;28;20225;-79
2022/01/06 06:39:16;;;;;;;4.03;1.20;;;0.80;1.00;;;;;;5035649;28;20263;-78
2022/01/06 06:41:43;;;;;;;7.95;1.55;;;0.80;1.00;;;;;;5046602;28;20267;-80
2022/01/06 06:44:10;;;;;;;3.60;2.13;;;0.80;1.00;;;;;;5040997;28;20228;-81
2022/01/06 06:46:39;;;;;;;4.93;1.98;;;0.80;1.00;;;;;;5048702;28;20264;-78
2022/01/06 06:49:06;;;;;;;3.58;1.75;;;0.80;1.00;;;;;;5040122;28;20719;-80
2022/01/06 06:51:35;;;;;;;6.00;2.30;;;0.80;1.00;;;;;;5038824;28;20237;-79
2022/01/06 06:54:02;;;;;;;4.45;1.92;;;0.80;1.00;;;;;;5044434;28;20694;-79
2022/01/06 06:56:32;;;;;;;5.45;1.63;;;0.80;1.00;;;;;;5019025;28;21124;-79
2022/01/06 06:58:59;;;;;;;5.05;1.95;;;0.70;1.00;;;;;;5034415;28;20221;-78
2022/01/06 07:01:26;;;;;;;3.58;1.92;;;0.80;1.00;;;;;;5042081;28;20245;-79
2022/01/06 07:03:52;;;;;;;4.93;1.95;;;0.70;1.00;;;;;;5037668;28;20276;-77
2022/01/06 07:06:19;;;;;;;6.45;2.72;;;0.70;1.00;;;;;;5043238;28;20229;-78
2022/01/06 07:08:48;;;;;;;3.58;1.65;;;0.70;1.00;;;;;;5036751;28;20230;-78
2022/01/06 07:11:17;;;;;;;6.93;2.45;;;0.80;1.00;;;;;;5037495;28;20649;-78
2022/01/06 07:13:44;;;;;;;5.00;2.10;;;0.80;1.00;;;;;;5035194;28;20229;-79
2022/01/06 07:16:11;;;;;;;2.63;1.60;;;0.70;1.00;;;;;;5016557;28;20246;-79
2022/01/06 07:18:38;;;;;;;4.72;2.25;;;0.70;1.00;;;;;;5037153;28;20284;-80
2022/01/06 07:21:05;;;;;;;10.40;2.13;;;0.70;1.00;;;;;;5033177;28;20228;-80
2022/01/06 07:23:31;;;;;;;3.92;1.55;;;0.70;1.00;;;;;;5036921;28;20226;-79
2022/01/06 07:26:00;;;;;;;3.47;1.80;;;0.70;1.00;;;;;;5039372;28;20283;-78
2022/01/06 07:28:27;;;;;;;4.15;1.45;;;0.70;1.00;;;;;;5042168;28;20288;-77
2022/01/06 07:30:54;;;;;;;4.80;2.03;;;0.70;1.00;;;;;;5038859;28;20240;-81
2022/01/06 07:33:21;;;;;;;3.80;1.95;;;0.70;1.00;;;;;;5041727;28;20271;-80
2022/01/06 07:35:47;;;;;;;3.33;1.90;;;0.70;1.00;;;;;;5014878;28;20708;-79
2022/01/06 07:38:15;;;;;;;4.85;1.95;;;0.70;1.00;;;;;;5035614;28;20278;-79
2022/01/06 07:40:42;;;;;;;4.70;1.92;;;0.70;1.00;;;;;;5040382;28;20231;-79
2022/01/06 07:43:10;;;;;;;5.60;1.90;;;0.70;1.00;;;;;;5042343;28;20260;-78
2022/01/06 07:45:37;;;;;;;10.07;2.40;;;0.80;1.00;;;;;;5039218;28;20313;-76
2022/01/06 07:48:15;;;;;;;5.72;3.70;;;0.80;1.00;;;;;;5040195;28;20287;-78
2022/01/06 07:50:42;;;;;;;6.03;2.97;;;0.80;1.00;;;;;;5031215;28;20230;-77
2022/01/06 07:53:08;;;;;;;4.60;2.08;;;0.80;1.00;;;;;;5039566;28;20225;-77
2022/01/06 07:55:36;;;;;;;4.55;2.45;;;0.80;1.00;;;;;;5013976;28;20221;-79
2022/01/06 07:58:03;;;;;;;6.13;2.00;;;0.90;1.00;;;;;;5038911;28;20236;-80
2022/01/06 08:00:31;;;;;;;6.63;2.40;;;0.90;1.00;;;;;;5036019;28;20241;-79
2022/01/06 08:02:58;;;;;;;3.90;1.92;;;0.90;1.00;;;;;;5022025;28;20683;-80
2022/01/06 08:05:27;;;;;;;4.43;2.22;;;0.90;1.00;;;;;;5043117;28;20236;-80
2022/01/06 08:07:54;;;;;;;7.82;2.58;;;1.00;1.00;;;;;;5020974;28;20744;-79
2022/01/06 08:10:21;;;;;;;4.28;1.90;;;1.00;1.00;;;;;;5041141;28;20238;-79
2022/01/06 08:12:48;;;;;;;3.72;2.13;;;1.00;1.00;;;;;;5043202;28;21660;-79
2022/01/06 08:15:15;;;;;;;5.95;1.85;;;1.00;1.00;;;;;;5036233;28;20431;-80
2022/01/06 08:17:44;;;;;;;6.78;1.65;;;1.10;1.00;;;;;;5050575;28;20356;-79
2022/01/06 08:20:12;;;;;;;7.82;2.72;;;1.10;1.00;;;;;;5025591;28;20284;-78
2022/01/06 08:22:39;;;;;;;9.40;3.20;;;1.20;1.00;;;;;;5048267;28;20202;-80
2022/01/06 08:25:08;;;;;;;6.18;2.83;;;1.20;1.00;;;;;;5043688;28;20228;-77
2022/01/06 08:27:35;;;;;;;6.22;3.03;;;1.60;1.00;;;;;;5050631;28;20253;-78
2022/01/06 08:30:05;;;;;;;5.22;2.40;;;2.10;1.00;;;;;;5045153;28;20217;-80
2022/01/06 08:32:32;;;;;;;3.53;2.13;;;2.60;1.00;;;;;;5034125;28;20238;-80
2022/01/06 08:35:00;;;;;;;4.50;2.20;;;2.60;1.00;;;;;;5028488;28;20323;-79
2022/01/06 08:37:27;;;;;;;5.63;2.05;;;2.50;1.00;;;;;;5038291;28;20237;-80
2022/01/06 08:39:54;;;;;;;4.75;2.28;;;2.40;1.00;;;;;;5043193;28;20222;-77
2022/01/06 08:42:21;;;;;;;4.38;2.10;;;2.40;1.00;;;;;;5028829;28;20257;-79
2022/01/06 08:44:48;;;;;;;4.85;2.50;;;2.30;1.00;;;;;;5041097;28;20221;-78
2022/01/06 08:47:15;;;;;;;6.60;2.65;;;2.30;1.00;;;;;;5026901;28;20230;-80
2022/01/06 08:49:42;;;;;;;5.10;1.90;;;2.40;1.00;;;;;;5060610;28;20206;-77
2022/01/06 08:52:15;;;;;;;6.03;2.22;;;2.30;1.00;;;;;;5043379;28;20585;-78
2022/01/06 08:54:42;;;;;;;5.05;2.60;;;2.20;1.00;;;;;;5044552;28;20218;-78
2022/01/06 08:57:09;;;;;;;5.40;2.95;;;2.00;1.00;;;;;;5044232;28;21030;-79
2022/01/06 08:59:36;;;;;;;5.57;3.70;;;2.00;1.00;;;;;;5034056;28;20222;-79
2022/01/06 09:02:03;;;;;;;7.68;2.47;;;1.90;1.00;;;;;;5052515;28;20224;-79
2022/01/06 09:04:30;;;;;;;3.97;2.47;;;2.00;1.00;;;;;;5055801;28;20280;-80
2022/01/06 09:06:58;;;;;;;5.18;2.20;;;2.10;1.00;;;;;;5050482;28;20304;-79
2022/01/06 09:09:27;;;;;;;6.18;2.83;;;2.10;1.00;;;;;;5052994;28;21163;-79
2022/01/06 09:11:54;;;;;;;4.50;2.25;;;2.20;1.00;;;;;;5042659;28;20289;-79
2022/01/06 09:14:22;;;;;;;3.63;1.83;;;2.20;1.00;;;;;;5031362;28;20611;-79
2022/01/06 09:16:50;;;;;;;7.18;2.15;;;2.20;1.00;;;;;;5056647;28;20248;-78
2022/01/06 09:19:38;;;;;;;4.07;2.55;;;2.30;1.00;;;;;;5061827;28;20214;-81
2022/01/06 09:22:05;;;;;;;4.10;1.60;;;2.50;1.00;;;;;;5046296;28;20233;-79
2022/01/06 09:24:33;;;;;;;7.97;3.28;;;2.70;1.00;;;;;;5048063;28;20297;-79
2022/01/06 09:27:04;;;;;;;7.20;2.30;;;2.70;1.00;;;;;;5020476;28;20245;-77
2022/01/06 09:29:31;;;;;;;5.65;2.80;;;2.80;1.00;;;;;;5042363;28;20222;-77
2022/01/06 09:31:58;;;;;;;7.78;2.90;;;2.80;1.00;;;;;;5038208;28;20238;-80
2022/01/06 09:34:25;;;;;;;4.65;2.55;;;2.90;1.00;;;;;;5048691;28;20229;-78
2022/01/06 09:36:51;;;;;;;4.00;2.25;;;3.20;1.00;;;;;;5043897;28;20222;-79
2022/01/06 09:39:18;;;;;;;5.05;2.78;;;3.40;1.00;;;;;;5040667;28;20229;-81
2022/01/06 09:41:48;;;;;;;5.38;2.22;;;3.40;1.00;;;;;;5045430;28;20743;-79
2022/01/06 09:44:15;;;;;;;3.95;1.50;;;3.40;1.00;;;;;;5039875;28;20224;-81
2022/01/06 09:46:44;;;;;;;5.00;2.40;;;3.50;1.00;;;;;;5038463;28;20270;-77
2022/01/06 09:49:11;;;;;;;6.18;2.40;;;3.80;1.00;;;;;;5040496;28;20229;-79
2022/01/06 09:51:39;;;;;;;7.80;2.20;;;4.10;1.00;;;;;;5032223;28;20352;-77
2022/01/06 09:54:07;;;;;;;6.95;2.58;;;4.10;1.00;;;;;;5029043;28;20237;-78
2022/01/06 09:56:35;;;;;;;4.88;1.65;;;3.90;1.00;;;;;;5040415;28;20320;-79
2022/01/06 09:59:04;;;;;;;4.47;2.38;;;3.80;1.00;;;;;;5040385;28;20225;-78
2022/01/06 10:01:30;;;;;;;5.25;2.00;;;3.90;1.00;;;;;;5040365;28;20226;-78
2022/01/06 10:03:57;;;;;;;4.85;2.40;;;4.40;1.00;;;;;;5041297;28;20223;-80
2022/01/06 10:06:26;;;;;;;3.70;2.47;;;4.90;1.00;;;;;;5034728;28;21376;-82
2022/01/06 10:08:55;;;;;;;8.63;2.22;;;5.00;1.00;;;;;;5047955;28;20280;-80
2022/01/06 10:11:26;;;;;;;7.95;2.30;;;5.00;1.00;;;;;;5042189;28;20230;-81
2022/01/06 10:13:57;;;;;;;3.97;2.45;;;4.80;1.00;;;;;;5050332;28;20210;-80
2022/01/06 10:16:28;;;;;;;7.65;2.67;;;4.70;1.00;;;;;;5039499;28;20823;-81
2022/01/06 10:19:04;;;;;;;5.72;2.65;;;4.60;1.00;;;;;;5048015;28;20232;-80
2022/01/06 10:21:35;;;;;;;4.93;1.80;;;5.00;1.00;;;;;;5045335;28;20287;-79
2022/01/06 10:24:03;;;;;;;6.28;2.30;;;5.40;1.00;;;;;;5046727;28;20778;-80
2022/01/06 10:26:30;;;;;;;7.50;2.28;;;5.80;1.00;;;;;;5041819;28;20285;-79
2022/01/06 10:28:57;;;;;;;7.20;2.90;;;6.20;1.00;;;;;;5049519;28;20257;-78
2022/01/06 10:31:28;;;;;;;7.13;2.50;;;6.50;1.00;;;;;;5041645;28;20237;-80
2022/01/06 10:33:55;;;;;;;5.68;1.80;;;7.00;1.00;;;;;;5039689;28;20305;-81
2022/01/06 10:36:28;;;;;;;8.60;2.97;;;6.80;1.00;;;;;;5051384;28;20803;-80
2022/01/06 10:38:56;;;;;;;6.22;2.13;;;6.90;1.00;;;;;;5030122;28;20293;-78
2022/01/06 10:41:24;;;;;;;4.53;2.10;;;6.80;1.00;;;;;;5023857;28;20250;-80
2022/01/06 10:43:53;;;;;;;5.55;4.05;;;7.20;1.00;;;;;;5048765;28;20988;-81
2022/01/06 10:46:34;;;;;;;5.70;2.30;;;7.80;1.00;;;;;;5050312;28;20237;-79
2022/01/06 10:49:04;;;;;;;5.15;2.10;;;7.60;1.00;;;;;;5054849;28;20221;-80
2022/01/06 10:51:44;;;;;;;6.50;1.58;;;7.20;1.00;;;;;;5052268;28;20255;-78
2022/01/06 10:54:14;;;;;;;4.30;1.98;;;7.20;1.00;;;;;;5038667;28;20774;-79
2022/01/06 10:56:41;;;;;;;13.20;2.67;;;7.30;1.00;;;;;;5045149;28;20771;-78
2022/01/06 10:59:08;;;;;;;3.80;1.45;;;7.40;1.00;;;;;;5037563;28;20547;-78
2022/01/06 11:01:37;;;;;;;7.05;2.20;;;7.10;1.00;;;;;;5041059;28;20288;-81
2022/01/06 11:04:05;;;;;;;10.63;4.13;;;7.50;1.00;;;;;;5039663;28;20221;-79
2022/01/06 11:06:32;;;;;;;4.88;2.50;;;8.30;1.00;;;;;;5041379;28;20232;-79
2022/01/06 11:09:00;;;;;;;6.00;2.20;;;8.70;1.00;;;;;;5040533;28;20214;-80
2022/01/06 11:11:42;;;;;;;5.78;2.15;;;8.50;1.00;;;;;;5051434;28;20526;-78
2022/01/06 11:14:14;;;;;;;8.38;2.33;;;9.00;1.00;;;;;;5034305;28;20440;-79
2022/01/06 11:16:44;;;;;;;8.40;1.90;;;8.80;1.00;;;;;;5040808;28;20260;-79
2022/01/06 11:19:13;;;;;;;3.67;2.08;;;8.70;1.00;;;;;;5030682;28;20226;-80
2022/01/06 11:21:42;;;;;;;8.18;2.45;;;8.90;1.00;;;;;;5032703;28;20272;-79
2022/01/06 11:24:14;;;;;;;5.97;2.72;;;9.50;1.00;;;;;;5033503;28;20259;-81
2022/01/06 11:26:43;;;;;;;4.07;1.67;;;10.00;1.00;;;;;;5045943;28;20305;-78
2022/01/06 11:29:12;;;;;;;6.05;1.70;;;10.30;1.00;;;;;;5044371;28;20315;-78
2022/01/06 11:31:41;;;;;;;3.17;1.00;;;10.50;1.00;;;;;;5049884;28;20301;-78
2022/01/06 11:34:15;;;;;;;14.02;4.15;;;10.80;1.00;;;;;;5057013;28;20209;-79
2022/01/06 11:36:46;;;;;;;3.78;1.63;;;10.40;1.00;;;;;;5059876;28;20232;-78
2022/01/06 11:39:24;;;;;;;6.68;1.50;;;10.40;1.00;;;;;;5052012;28;20279;-78
2022/01/06 11:41:52;;;;;;;3.05;1.25;;;10.20;1.00;;;;;;5049126;28;20226;-79
2022/01/06 11:44:22;;;;;;;3.58;1.65;;;9.80;1.00;;;;;;5041703;28;20352;-78
2022/01/06 11:46:51;;;;;;;9.57;2.60;;;10.20;1.00;;;;;;5054522;28;20230;-82
2022/01/06 11:49:33;;;;;;;4.80;2.00;;;10.30;1.00;;;;;;5024190;28;20322;-80
2022/01/06 11:52:11;;;;;;;7.00;2.20;;;10.30;1.00;;;;;;5019922;28;20326;-79
2022/01/06 11:54:49;;;;;;;7.55;2.65;;;10.70;1.00;;;;;;5049691;28;20300;-79
2022/01/06 11:57:28;;;;;;;2.17;1.20;;;10.90;1.00;;;;;;5041517;28;20305;-79
2022/01/06 11:59:55;;;;;;;4.88;1.30;;;10.40;1.00;;;;;;5043876;28;20255;-80
2022/01/06 12:02:23;;;;;;;4.07;2.17;;;10.30;1.00;;;;;;5046131;28;20776;-78
2022/01/06 12:04:59;;;;;;;4.10;1.85;;;10.70;1.00;;;;;;5051759;28;20308;-76
2022/01/06 12:07:27;;;;;;;5.80;1.48;;;11.20;1.00;;;;;;5035713;28;20293;-79
2022/01/06 12:09:59;;;;;;;7.10;2.37;;;11.70;1.00;;;;;;5043819;28;20226;-78
2022/01/06 12:12:37;;;;;;;6.90;1.70;;;11.70;1.00;;;;;;5040472;28;20468;-80
2022/01/06 12:15:09;;;;;;;8.57;2.60;;;11.50;1.00;;;;;;5035132;28;20453;-80
2022/01/06 12:17:36;;;;;;;6.13;1.87;;;11.80;1.00;;;;;;5040036;28;20487;-78
2022/01/06 12:20:07;;;;;;;3.30;2.13;;;11.70;1.00;;;;;;5033844;28;21078;-78
2022/01/06 12:22:33;;;;;;;6.27;2.40;;;11.50;1.00;;;;;;5046117;28;20495;-79
2022/01/06 12:25:01;;;;;;;8.87;2.27;;;12.00;1.00;;;;;;5045419;28;20520;-78
2022/01/06 12:27:28;;;;;;;5.50;2.87;;;12.50;1.00;;;;;;5060122;28;20636;-80
2022/01/06 12:29:56;;;;;;;4.70;1.77;;;12.90;1.00;;;;;;5051094;28;20591;-79
2022/01/06 12:32:23;;;;;;;2.90;1.40;;;13.50;1.00;;;;;;5060537;28;20440;-79
2022/01/06 12:34:54;;;;;;;2.47;1.30;;;13.90;1.00;;;;;;5047727;28;20568;-78
2022/01/06 12:37:30;;;;;;;5.57;1.70;;;13.60;1.00;;;;;;5043559;28;20635;-78
2022/01/06 12:39:57;;;;;;;3.27;1.43;;;13.30;1.00;;;;;;5045317;28;20953;-78
2022/01/06 12:42:24;;;;;;;3.17;1.37;;;13.20;1.00;;;;;;5051135;28;20456;-79
2022/01/06 12:44:51;;;;;;;4.03;1.90;;;13.40;1.00;;;;;;5043015;28;20472;-80
2022/01/06 12:47:18;;;;;;;4.23;1.70;;;13.20;1.00;;;;;;5039408;28;20464;-78
2022/01/06 12:49:44;;;;;;;5.60;1.43;;;13.50;1.00;;;;;;5034818;28;20453;-79
2022/01/06 12:52:11;;;;;;;3.60;1.50;;;13.70;1.00;;;;;;5045136;28;20976;-82
2022/01/06 12:54:40;;;;;;;2.90;1.40;;;14.10;1.00;;;;;;5049744;28;20479;-77
2022/01/06 12:57:09;;;;;;;6.20;1.70;;;15.60;1.00;;;;;;5058052;28;20460;-78
2022/01/06 12:59:39;;;;;;;4.30;2.00;;;16.60;1.00;;;;;;5061497;28;20448;-76
2022/01/06 13:02:08;;;;;;;2.90;1.50;;;16.70;1.00;;;;;;5049132;28;20460;-78
2022/01/06 13:04:38;;;;;;;3.67;1.37;;;15.90;1.00;;;;;;5050738;28;20527;-80
2022/01/06 13:07:06;;;;;;;2.93;1.47;;;14.80;1.00;;;;;;5037948;28;20551;-80
2022/01/06 13:09:35;;;;;;;5.93;1.63;;;12.90;1.00;;;;;;5041053;28;20417;-79
2022/01/06 13:12:05;;;;;;;9.30;2.70;;;12.60;1.00;;;;;;5039196;28;20496;-80
2022/01/06 13:14:36;;;;;;;3.07;1.27;;;13.90;1.00;;;;;;5044391;28;20570;-82
2022/01/06 13:17:10;;;;;;;4.63;1.37;;;15.00;1.00;;;;;;5052572;28;20819;-81
2022/01/06 13:19:42;;;;;;;4.90;2.03;;;14.30;1.00;;;;;;5052567;28;20436;-78
2022/01/06 13:22:15;;;;;;;3.07;1.37;;;12.10;1.00;;;;;;5040881;28;20442;-78